Terminal Aerodrome Forecast
Issued by NWS

Home | Current Version | Previous Version | Text Only | Print | Product List | Glossary On
Versions: 1 2 3 4 5 6 7 8 9 10 11 12 13 14 15 16 17 18
000
FTUS42 KFFC 051125
TAFFTY
TAF
KFTY 051125Z 0512/0612 06005KT 5SM -DZ OVC005
     FM051800 06005KT 5SM -RA BR OVC006
     FM060300 09008KT 3SM -RADZ BR OVC004=

USA.gov is the U.S. government's official web portal to all federal, state and local government web resources and services.